sensor_id;sensor_type;location;lat;lon;timestamp;temperature;humidity
4964;DHT22;2497;47.410;9.740;2023-07-31T00:01:04;16.80;99.90
4964;DHT22;2497;47.410;9.740;2023-07-31T00:03:31;16.70;99.90
4964;DHT22;2497;47.410;9.740;2023-07-31T00:06:00;16.70;99.90
4964;DHT22;2497;47.410;9.740;2023-07-31T00:08:27;16.60;99.90
4964;DHT22;2497;47.410;9.740;2023-07-31T00:10:55;16.60;99.90
4964;DHT22;2497;47.410;9.740;2023-07-31T00:13:32;16.60;99.90
4964;DHT22;2497;47.410;9.740;2023-07-31T00:16:00;16.60;99.90
4964;DHT22;2497;47.410;9.740;2023-07-31T00:18:27;16.70;99.90
4964;DHT22;2497;47.410;9.740;2023-07-31T00:20:56;16.60;99.90
4964;DHT22;2497;47.410;9.740;2023-07-31T00:23:23;16.60;99.90
4964;DHT22;2497;47.410;9.740;2023-07-31T00:25:52;16.60;99.90
4964;DHT22;2497;47.410;9.740;2023-07-31T00:28:22;16.60;99.90
4964;DHT22;2497;47.410;9.740;2023-07-31T00:30:53;16.50;99.90
4964;DHT22;2497;47.410;9.740;2023-07-31T00:33:20;16.50;99.90
4964;DHT22;2497;47.410;9.740;2023-07-31T00:35:48;16.40;99.90
4964;DHT22;2497;47.410;9.740;2023-07-31T00:38:16;16.40;99.90
4964;DHT22;2497;47.410;9.740;2023-07-31T00:40:43;16.40;99.90
4964;DHT22;2497;47.410;9.740;2023-07-31T00:43:12;16.40;99.90
4964;DHT22;2497;47.410;9.740;2023-07-31T00:45:41;16.40;99.90
4964;DHT22;2497;47.410;9.740;2023-07-31T00:48:10;16.30;99.90
4964;DHT22;2497;47.410;9.740;2023-07-31T00:50:39;16.30;99.90
4964;DHT22;2497;47.410;9.740;2023-07-31T00:53:06;16.30;99.90
4964;DHT22;2497;47.410;9.740;2023-07-31T00:55:33;16.30;99.90
4964;DHT22;2497;47.410;9.740;2023-07-31T00:58:03;16.40;99.90
4964;DHT22;2497;47.410;9.740;2023-07-31T01:00:31;16.30;99.90
4964;DHT22;2497;47.410;9.740;2023-07-31T01:02:58;16.30;99.90
4964;DHT22;2497;47.410;9.740;2023-07-31T01:05:36;16.40;99.90
4964;DHT22;2497;47.410;9.740;2023-07-31T01:08:12;16.40;99.90
4964;DHT22;2497;47.410;9.740;2023-07-31T01:10:48;16.40;99.90
4964;DHT22;2497;47.410;9.740;2023-07-31T01:13:19;16.40;99.90
4964;DHT22;2497;47.410;9.740;2023-07-31T01:15:47;16.40;99.90
4964;DHT22;2497;47.410;9.740;2023-07-31T01:18:15;16.40;99.90
4964;DHT22;2497;47.410;9.740;2023-07-31T01:20:49;16.40;99.90
4964;DHT22;2497;47.410;9.740;2023-07-31T01:23:36;16.40;99.90
4964;DHT22;2497;47.410;9.740;2023-07-31T01:26:16;16.40;99.90
4964;DHT22;2497;47.410;9.740;2023-07-31T01:28:51;16.40;99.90
4964;DHT22;2497;47.410;9.740;2023-07-31T01:31:23;16.40;99.90
4964;DHT22;2497;47.410;9.740;2023-07-31T01:33:53;16.40;99.90
4964;DHT22;2497;47.410;9.740;2023-07-31T01:36:21;16.50;99.90
4964;DHT22;2497;47.410;9.740;2023-07-31T01:38:49;16.50;99.90
4964;DHT22;2497;47.410;9.740;2023-07-31T01:41:18;16.50;99.90
4964;DHT22;2497;47.410;9.740;2023-07-31T01:43:46;16.50;99.90
4964;DHT22;2497;47.410;9.740;2023-07-31T01:46:15;16.50;99.90
4964;DHT22;2497;47.410;9.740;2023-07-31T01:48:42;16.60;99.90
4964;DHT22;2497;47.410;9.740;2023-07-31T01:51:10;16.50;99.90
4964;DHT22;2497;47.410;9.740;2023-07-31T01:53:40;16.50;99.90
4964;DHT22;2497;47.410;9.740;2023-07-31T01:56:07;16.50;99.90
4964;DHT22;2497;47.410;9.740;2023-07-31T01:58:36;16.50;99.90
4964;DHT22;2497;47.410;9.740;2023-07-31T02:01:03;16.50;99.90
4964;DHT22;2497;47.410;9.740;2023-07-31T02:03:30;16.50;99.90
4964;DHT22;2497;47.410;9.740;2023-07-31T02:05:58;16.50;99.90
4964;DHT22;2497;47.410;9.740;2023-07-31T02:08:25;16.50;99.90
4964;DHT22;2497;47.410;9.740;2023-07-31T02:10:53;16.50;99.90
4964;DHT22;2497;47.410;9.740;2023-07-31T02:13:20;16.50;99.90
4964;DHT22;2497;47.410;9.740;2023-07-31T02:15:51;16.50;99.90
4964;DHT22;2497;47.410;9.740;2023-07-31T02:18:19;16.50;99.90
4964;DHT22;2497;47.410;9.740;2023-07-31T02:20:49;16.40;99.90
4964;DHT22;2497;47.410;9.740;2023-07-31T02:23:16;16.50;99.90
4964;DHT22;2497;47.410;9.740;2023-07-31T02:25:44;16.50;99.90
4964;DHT22;2497;47.410;9.740;2023-07-31T02:28:14;16.50;99.90
4964;DHT22;2497;47.410;9.740;2023-07-31T02:30:44;16.50;99.90
4964;DHT22;2497;47.410;9.740;2023-07-31T02:33:14;16.50;99.90
4964;DHT22;2497;47.410;9.740;2023-07-31T02:35:41;16.40;99.90
4964;DHT22;2497;47.410;9.740;2023-07-31T02:38:11;16.40;99.90
4964;DHT22;2497;47.410;9.740;2023-07-31T02:40:39;16.40;99.90
4964;DHT22;2497;47.410;9.740;2023-07-31T02:43:07;16.30;99.90
4964;DHT22;2497;47.410;9.740;2023-07-31T02:45:34;16.30;99.90
4964;DHT22;2497;47.410;9.740;2023-07-31T02:48:01;16.30;99.90
4964;DHT22;2497;47.410;9.740;2023-07-31T02:50:47;16.20;99.90
4964;DHT22;2497;47.410;9.740;2023-07-31T02:53:18;16.30;99.90
4964;DHT22;2497;47.410;9.740;2023-07-31T02:55:45;16.20;99.90
4964;DHT22;2497;47.410;9.740;2023-07-31T02:58:13;16.20;99.90
4964;DHT22;2497;47.410;9.740;2023-07-31T03:00:42;16.20;99.90
4964;DHT22;2497;47.410;9.740;2023-07-31T03:03:10;16.20;99.90
4964;DHT22;2497;47.410;9.740;2023-07-31T03:05:39;16.20;99.90
4964;DHT22;2497;47.410;9.740;2023-07-31T03:08:08;16.10;99.90
4964;DHT22;2497;47.410;9.740;2023-07-31T03:10:35;16.20;99.90
4964;DHT22;2497;47.410;9.740;2023-07-31T03:13:02;16.20;99.90
4964;DHT22;2497;47.410;9.740;2023-07-31T03:15:29;16.10;99.90
4964;DHT22;2497;47.410;9.740;2023-07-31T03:17:56;16.10;99.90
4964;DHT22;2497;47.410;9.740;2023-07-31T03:20:24;16.10;99.90
4964;DHT22;2497;47.410;9.740;2023-07-31T03:22:51;16.10;99.90
4964;DHT22;2497;47.410;9.740;2023-07-31T03:25:21;16.10;99.90
4964;DHT22;2497;47.410;9.740;2023-07-31T03:27:49;16.10;99.90
4964;DHT22;2497;47.410;9.740;2023-07-31T03:30:16;16.00;99.90
4964;DHT22;2497;47.410;9.740;2023-07-31T03:32:43;16.00;99.90
4964;DHT22;2497;47.410;9.740;2023-07-31T03:35:10;16.00;99.90
4964;DHT22;2497;47.410;9.740;2023-07-31T03:37:37;15.90;99.90
4964;DHT22;2497;47.410;9.740;2023-07-31T03:40:07;15.90;99.90
4964;DHT22;2497;47.410;9.740;2023-07-31T03:42:36;15.90;99.90
4964;DHT22;2497;47.410;9.740;2023-07-31T03:45:04;15.80;99.90
4964;DHT22;2497;47.410;9.740;2023-07-31T03:47:35;15.90;99.90
4964;DHT22;2497;47.410;9.740;2023-07-31T03:50:02;15.80;99.90
4964;DHT22;2497;47.410;9.740;2023-07-31T03:52:29;15.80;99.90
4964;DHT22;2497;47.410;9.740;2023-07-31T03:54:56;15.70;99.90
4964;DHT22;2497;47.410;9.740;2023-07-31T03:57:24;15.70;99.90
4964;DHT22;2497;47.410;9.740;2023-07-31T03:59:52;15.70;99.90
4964;DHT22;2497;47.410;9.740;2023-07-31T04:02:20;15.60;99.90
4964;DHT22;2497;47.410;9.740;2023-07-31T04:04:47;15.60;99.90
4964;DHT22;2497;47.410;9.740;2023-07-31T04:07:14;15.50;99.90
4964;DHT22;2497;47.410;9.740;2023-07-31T04:09:44;15.50;99.90
4964;DHT22;2497;47.410;9.740;2023-07-31T04:12:12;15.50;99.90
4964;DHT22;2497;47.410;9.740;2023-07-31T04:14:41;15.50;99.90
4964;DHT22;2497;47.410;9.740;2023-07-31T04:17:12;15.50;99.90
4964;DHT22;2497;47.410;9.740;2023-07-31T04:19:39;15.50;99.90
4964;DHT22;2497;47.410;9.740;2023-07-31T04:22:06;15.50;99.90
4964;DHT22;2497;47.410;9.740;2023-07-31T04:24:34;15.40;99.90
4964;DHT22;2497;47.410;9.740;2023-07-31T04:27:01;15.40;99.90
4964;DHT22;2497;47.410;9.740;2023-07-31T04:29:28;15.50;99.90
4964;DHT22;2497;47.410;9.740;2023-07-31T04:46:18;15.50;99.90
4964;DHT22;2497;47.410;9.740;2023-07-31T04:48:45;15.60;99.90
4964;DHT22;2497;47.410;9.740;2023-07-31T04:51:12;15.70;99.90
4964;DHT22;2497;47.410;9.740;2023-07-31T04:53:39;15.70;99.90
4964;DHT22;2497;47.410;9.740;2023-07-31T04:56:06;15.70;99.90
4964;DHT22;2497;47.410;9.740;2023-07-31T04:58:33;15.70;99.90
4964;DHT22;2497;47.410;9.740;2023-07-31T05:01:00;15.80;99.90
4964;DHT22;2497;47.410;9.740;2023-07-31T05:03:28;15.80;99.90
4964;DHT22;2497;47.410;9.740;2023-07-31T05:05:55;15.90;99.90
4964;DHT22;2497;47.410;9.740;2023-07-31T05:08:22;15.90;99.90
4964;DHT22;2497;47.410;9.740;2023-07-31T05:10:49;15.90;99.90
4964;DHT22;2497;47.410;9.740;2023-07-31T05:13:16;16.10;99.90
4964;DHT22;2497;47.410;9.740;2023-07-31T05:15:43;16.20;99.90
4964;DHT22;2497;47.410;9.740;2023-07-31T05:18:10;16.20;99.90
4964;DHT22;2497;47.410;9.740;2023-07-31T05:20:39;16.20;99.90
4964;DHT22;2497;47.410;9.740;2023-07-31T05:23:06;16.30;99.90
4964;DHT22;2497;47.410;9.740;2023-07-31T05:25:33;16.30;99.90
4964;DHT22;2497;47.410;9.740;2023-07-31T05:28:00;16.30;99.90
4964;DHT22;2497;47.410;9.740;2023-07-31T05:30:29;16.30;99.90
4964;DHT22;2497;47.410;9.740;2023-07-31T05:32:56;16.40;99.90
4964;DHT22;2497;47.410;9.740;2023-07-31T05:35:23;16.40;99.90
4964;DHT22;2497;47.410;9.740;2023-07-31T05:37:51;16.50;99.90
4964;DHT22;2497;47.410;9.740;2023-07-31T05:40:18;16.50;99.90
4964;DHT22;2497;47.410;9.740;2023-07-31T05:42:45;16.50;99.90
4964;DHT22;2497;47.410;9.740;2023-07-31T05:45:12;16.50;99.90
4964;DHT22;2497;47.410;9.740;2023-07-31T05:47:40;16.60;99.90
4964;DHT22;2497;47.410;9.740;2023-07-31T05:50:07;16.60;99.90
4964;DHT22;2497;47.410;9.740;2023-07-31T05:52:37;16.70;99.90
4964;DHT22;2497;47.410;9.740;2023-07-31T05:55:06;16.60;99.90
4964;DHT22;2497;47.410;9.740;2023-07-31T05:57:33;16.70;99.90
4964;DHT22;2497;47.410;9.740;2023-07-31T06:00:02;16.60;99.90
4964;DHT22;2497;47.410;9.740;2023-07-31T06:02:29;16.70;99.90
4964;DHT22;2497;47.410;9.740;2023-07-31T06:04:58;16.70;99.90
4964;DHT22;2497;47.410;9.740;2023-07-31T06:07:26;16.70;99.90
4964;DHT22;2497;47.410;9.740;2023-07-31T06:09:54;16.70;99.90
4964;DHT22;2497;47.410;9.740;2023-07-31T06:12:24;16.70;99.90
4964;DHT22;2497;47.410;9.740;2023-07-31T06:14:51;16.80;99.90
4964;DHT22;2497;47.410;9.740;2023-07-31T06:17:18;16.80;99.90
4964;DHT22;2497;47.410;9.740;2023-07-31T06:19:45;16.90;99.90
4964;DHT22;2497;47.410;9.740;2023-07-31T06:22:12;17.00;99.90
4964;DHT22;2497;47.410;9.740;2023-07-31T06:24:39;17.10;99.90
4964;DHT22;2497;47.410;9.740;2023-07-31T06:27:06;17.10;99.90
4964;DHT22;2497;47.410;9.740;2023-07-31T06:29:35;17.20;99.90
4964;DHT22;2497;47.410;9.740;2023-07-31T06:32:02;17.10;99.90
4964;DHT22;2497;47.410;9.740;2023-07-31T06:34:29;17.20;99.90
4964;DHT22;2497;47.410;9.740;2023-07-31T06:36:56;17.20;99.90
4964;DHT22;2497;47.410;9.740;2023-07-31T06:39:23;17.20;99.90
4964;DHT22;2497;47.410;9.740;2023-07-31T06:41:50;17.30;99.90
4964;DHT22;2497;47.410;9.740;2023-07-31T06:44:17;17.50;99.90
4964;DHT22;2497;47.410;9.740;2023-07-31T06:46:46;17.70;99.90
4964;DHT22;2497;47.410;9.740;2023-07-31T06:49:13;17.60;99.90
4964;DHT22;2497;47.410;9.740;2023-07-31T06:51:40;17.60;99.90
4964;DHT22;2497;47.410;9.740;2023-07-31T06:54:08;17.70;99.90
4964;DHT22;2497;47.410;9.740;2023-07-31T06:56:35;17.70;99.90
4964;DHT22;2497;47.410;9.740;2023-07-31T06:59:02;17.70;99.90
4964;DHT22;2497;47.410;9.740;2023-07-31T07:01:29;17.60;99.90
4964;DHT22;2497;47.410;9.740;2023-07-31T07:03:58;17.60;99.90
4964;DHT22;2497;47.410;9.740;2023-07-31T07:06:25;17.60;99.90
4964;DHT22;2497;47.410;9.740;2023-07-31T07:08:52;17.50;99.90
4964;DHT22;2497;47.410;9.740;2023-07-31T07:11:19;17.60;99.90
4964;DHT22;2497;47.410;9.740;2023-07-31T07:13:46;17.60;99.90
4964;DHT22;2497;47.410;9.740;2023-07-31T07:16:13;17.60;99.90
4964;DHT22;2497;47.410;9.740;2023-07-31T07:18:40;17.70;99.90
4964;DHT22;2497;47.410;9.740;2023-07-31T07:21:09;17.80;99.90
4964;DHT22;2497;47.410;9.740;2023-07-31T07:23:40;17.80;99.90
4964;DHT22;2497;47.410;9.740;2023-07-31T07:26:07;17.80;99.90
4964;DHT22;2497;47.410;9.740;2023-07-31T07:28:34;17.90;99.90
4964;DHT22;2497;47.410;9.740;2023-07-31T07:31:02;17.90;99.90
4964;DHT22;2497;47.410;9.740;2023-07-31T07:33:29;17.90;99.90
4964;DHT22;2497;47.410;9.740;2023-07-31T07:36:00;18.10;99.90
4964;DHT22;2497;47.410;9.740;2023-07-31T07:38:29;18.10;99.90
4964;DHT22;2497;47.410;9.740;2023-07-31T07:40:59;18.20;99.90
4964;DHT22;2497;47.410;9.740;2023-07-31T07:43:26;18.20;99.90
4964;DHT22;2497;47.410;9.740;2023-07-31T07:45:53;18.30;99.90
4964;DHT22;2497;47.410;9.740;2023-07-31T07:48:20;18.30;99.90
4964;DHT22;2497;47.410;9.740;2023-07-31T07:50:47;18.50;99.90
4964;DHT22;2497;47.410;9.740;2023-07-31T07:53:17;18.80;99.90
4964;DHT22;2497;47.410;9.740;2023-07-31T07:55:46;19.00;99.90
4964;DHT22;2497;47.410;9.740;2023-07-31T07:58:13;18.90;99.90
4964;DHT22;2497;47.410;9.740;2023-07-31T08:00:40;18.90;99.90
4964;DHT22;2497;47.410;9.740;2023-07-31T08:03:07;18.80;99.90
4964;DHT22;2497;47.410;9.740;2023-07-31T08:05:35;18.70;99.90
4964;DHT22;2497;47.410;9.740;2023-07-31T08:08:02;18.70;99.90
4964;DHT22;2497;47.410;9.740;2023-07-31T08:10:29;18.80;99.90
4964;DHT22;2497;47.410;9.740;2023-07-31T08:12:57;19.00;99.90
4964;DHT22;2497;47.410;9.740;2023-07-31T08:15:24;18.90;99.90
4964;DHT22;2497;47.410;9.740;2023-07-31T08:17:51;19.00;99.90
4964;DHT22;2497;47.410;9.740;2023-07-31T08:20:19;19.40;99.90
4964;DHT22;2497;47.410;9.740;2023-07-31T08:22:46;20.10;99.90
4964;DHT22;2497;47.410;9.740;2023-07-31T08:25:13;20.40;99.90
4964;DHT22;2497;47.410;9.740;2023-07-31T08:27:43;20.60;99.90
4964;DHT22;2497;47.410;9.740;2023-07-31T08:30:12;20.50;99.90
4964;DHT22;2497;47.410;9.740;2023-07-31T08:32:39;20.50;99.90
4964;DHT22;2497;47.410;9.740;2023-07-31T08:35:06;21.00;99.90
4964;DHT22;2497;47.410;9.740;2023-07-31T08:37:33;21.10;99.90
4964;DHT22;2497;47.410;9.740;2023-07-31T08:40:00;21.30;99.90
4964;DHT22;2497;47.410;9.740;2023-07-31T08:42:28;21.10;99.90
4964;DHT22;2497;47.410;9.740;2023-07-31T08:44:55;21.10;99.90
4964;DHT22;2497;47.410;9.740;2023-07-31T08:47:27;21.30;99.90
4964;DHT22;2497;47.410;9.740;2023-07-31T08:49:55;21.60;99.90
4964;DHT22;2497;47.410;9.740;2023-07-31T08:52:23;21.40;99.90
4964;DHT22;2497;47.410;9.740;2023-07-31T08:54:50;21.00;99.90
4964;DHT22;2497;47.410;9.740;2023-07-31T08:57:17;21.30;99.90
4964;DHT22;2497;47.410;9.740;2023-07-31T08:59:45;21.40;99.90
4964;DHT22;2497;47.410;9.740;2023-07-31T09:02:13;22.00;99.90
4964;DHT22;2497;47.410;9.740;2023-07-31T09:04:43;21.70;99.90
4964;DHT22;2497;47.410;9.740;2023-07-31T09:07:11;21.40;99.90
4964;DHT22;2497;47.410;9.740;2023-07-31T09:09:39;21.40;99.90
4964;DHT22;2497;47.410;9.740;2023-07-31T09:12:07;21.40;99.90
4964;DHT22;2497;47.410;9.740;2023-07-31T09:14:34;21.50;99.90
4964;DHT22;2497;47.410;9.740;2023-07-31T09:17:04;21.50;99.90
4964;DHT22;2497;47.410;9.740;2023-07-31T09:19:33;21.70;99.90
4964;DHT22;2497;47.410;9.740;2023-07-31T09:22:05;21.60;99.90
4964;DHT22;2497;47.410;9.740;2023-07-31T09:24:33;22.30;99.90
4964;DHT22;2497;47.410;9.740;2023-07-31T09:27:01;22.50;99.90
4964;DHT22;2497;47.410;9.740;2023-07-31T09:29:29;23.40;99.90
4964;DHT22;2497;47.410;9.740;2023-07-31T09:31:56;23.80;99.90
4964;DHT22;2497;47.410;9.740;2023-07-31T09:34:29;24.40;99.90
4964;DHT22;2497;47.410;9.740;2023-07-31T09:37:01;24.40;99.90
4964;DHT22;2497;47.410;9.740;2023-07-31T09:39:29;24.80;99.90
4964;DHT22;2497;47.410;9.740;2023-07-31T09:41:56;24.10;99.90
4964;DHT22;2497;47.410;9.740;2023-07-31T09:44:37;23.20;99.90
4964;DHT22;2497;47.410;9.740;2023-07-31T09:47:06;22.80;99.90
4964;DHT22;2497;47.410;9.740;2023-07-31T09:49:33;23.00;99.90
4964;DHT22;2497;47.410;9.740;2023-07-31T09:52:00;22.50;99.90
4964;DHT22;2497;47.410;9.740;2023-07-31T09:54:28;22.00;99.90
4964;DHT22;2497;47.410;9.740;2023-07-31T09:56:57;21.80;99.90
4964;DHT22;2497;47.410;9.740;2023-07-31T09:59:25;21.80;99.90
4964;DHT22;2497;47.410;9.740;2023-07-31T10:01:53;21.60;99.90
4964;DHT22;2497;47.410;9.740;2023-07-31T10:04:24;21.70;99.90
4964;DHT22;2497;47.410;9.740;2023-07-31T10:06:54;22.30;99.90
4964;DHT22;2497;47.410;9.740;2023-07-31T10:09:23;23.10;99.90
4964;DHT22;2497;47.410;9.740;2023-07-31T10:12:00;23.40;99.90
4964;DHT22;2497;47.410;9.740;2023-07-31T10:14:27;23.30;99.90
4964;DHT22;2497;47.410;9.740;2023-07-31T10:16:57;22.80;99.90
4964;DHT22;2497;47.410;9.740;2023-07-31T10:19:24;22.70;99.90
4964;DHT22;2497;47.410;9.740;2023-07-31T10:21:52;22.30;99.90
4964;DHT22;2497;47.410;9.740;2023-07-31T10:24:22;22.60;99.90
4964;DHT22;2497;47.410;9.740;2023-07-31T10:26:53;22.90;99.90
4964;DHT22;2497;47.410;9.740;2023-07-31T10:29:26;23.80;99.90
4964;DHT22;2497;47.410;9.740;2023-07-31T10:31:57;23.70;99.90
4964;DHT22;2497;47.410;9.740;2023-07-31T10:34:25;24.20;99.90
4964;DHT22;2497;47.410;9.740;2023-07-31T10:37:19;24.60;99.90
4964;DHT22;2497;47.410;9.740;2023-07-31T10:39:55;25.60;99.90
4964;DHT22;2497;47.410;9.740;2023-07-31T10:42:32;25.90;99.90
4964;DHT22;2497;47.410;9.740;2023-07-31T10:45:01;26.10;99.90
4964;DHT22;2497;47.410;9.740;2023-07-31T10:47:29;27.00;99.90
4964;DHT22;2497;47.410;9.740;2023-07-31T10:50:22;27.10;99.90
4964;DHT22;2497;47.410;9.740;2023-07-31T10:52:52;26.90;99.90
4964;DHT22;2497;47.410;9.740;2023-07-31T10:55:25;26.40;99.90
4964;DHT22;2497;47.410;9.740;2023-07-31T10:57:55;27.00;99.90
4964;DHT22;2497;47.410;9.740;2023-07-31T11:00:25;27.10;99.90
4964;DHT22;2497;47.410;9.740;2023-07-31T11:03:13;27.30;99.90
4964;DHT22;2497;47.410;9.740;2023-07-31T11:08:21;28.50;99.90
4964;DHT22;2497;47.410;9.740;2023-07-31T11:10:50;29.00;99.90
4964;DHT22;2497;47.410;9.740;2023-07-31T11:13:18;28.60;99.90
4964;DHT22;2497;47.410;9.740;2023-07-31T11:15:45;27.40;99.90
4964;DHT22;2497;47.410;9.740;2023-07-31T11:18:12;28.20;99.90
4964;DHT22;2497;47.410;9.740;2023-07-31T11:20:40;27.10;99.90
4964;DHT22;2497;47.410;9.740;2023-07-31T11:23:10;27.30;99.90
4964;DHT22;2497;47.410;9.740;2023-07-31T11:25:37;27.70;99.90
4964;DHT22;2497;47.410;9.740;2023-07-31T11:28:09;27.70;99.90
4964;DHT22;2497;47.410;9.740;2023-07-31T11:30:38;27.30;99.90
4964;DHT22;2497;47.410;9.740;2023-07-31T11:33:07;27.10;99.90
4964;DHT22;2497;47.410;9.740;2023-07-31T11:35:36;26.70;99.90
4964;DHT22;2497;47.410;9.740;2023-07-31T11:38:09;26.50;99.90
4964;DHT22;2497;47.410;9.740;2023-07-31T11:40:41;26.10;99.90
4964;DHT22;2497;47.410;9.740;2023-07-31T11:43:08;26.30;99.90
4964;DHT22;2497;47.410;9.740;2023-07-31T11:45:39;26.60;99.90
4964;DHT22;2497;47.410;9.740;2023-07-31T11:48:07;27.40;99.90
4964;DHT22;2497;47.410;9.740;2023-07-31T11:50:36;27.20;99.90
4964;DHT22;2497;47.410;9.740;2023-07-31T11:53:06;27.10;99.90
4964;DHT22;2497;47.410;9.740;2023-07-31T11:55:35;27.00;99.90
4964;DHT22;2497;47.410;9.740;2023-07-31T11:58:02;27.00;99.90
4964;DHT22;2497;47.410;9.740;2023-07-31T12:00:30;26.90;99.90
4964;DHT22;2497;47.410;9.740;2023-07-31T12:03:00;27.00;99.90
4964;DHT22;2497;47.410;9.740;2023-07-31T12:36:45;24.60;99.90
4964;DHT22;2497;47.410;9.740;2023-07-31T12:42:27;25.40;99.90
4964;DHT22;2497;47.410;9.740;2023-07-31T12:44:57;25.00;99.90
4964;DHT22;2497;47.410;9.740;2023-07-31T12:47:27;24.70;99.90
4964;DHT22;2497;47.410;9.740;2023-07-31T12:49:54;24.50;99.90
4964;DHT22;2497;47.410;9.740;2023-07-31T12:52:22;24.40;99.90
4964;DHT22;2497;47.410;9.740;2023-07-31T12:54:49;24.20;99.90
4964;DHT22;2497;47.410;9.740;2023-07-31T12:57:16;24.40;99.90
4964;DHT22;2497;47.410;9.740;2023-07-31T12:59:45;24.70;99.90
4964;DHT22;2497;47.410;9.740;2023-07-31T13:02:12;24.80;99.90
4964;DHT22;2497;47.410;9.740;2023-07-31T13:04:39;24.70;99.90
4964;DHT22;2497;47.410;9.740;2023-07-31T13:07:07;24.60;99.90
4964;DHT22;2497;47.410;9.740;2023-07-31T13:09:34;24.60;99.90
4964;DHT22;2497;47.410;9.740;2023-07-31T13:12:01;24.90;99.90
4964;DHT22;2497;47.410;9.740;2023-07-31T13:14:28;25.20;99.90
4964;DHT22;2497;47.410;9.740;2023-07-31T13:16:57;25.60;99.90
4964;DHT22;2497;47.410;9.740;2023-07-31T13:19:24;25.50;99.90
4964;DHT22;2497;47.410;9.740;2023-07-31T13:21:51;25.70;99.90
4964;DHT22;2497;47.410;9.740;2023-07-31T13:24:19;25.50;99.90
4964;DHT22;2497;47.410;9.740;2023-07-31T13:26:46;25.30;99.90
4964;DHT22;2497;47.410;9.740;2023-07-31T13:29:28;25.30;99.90
4964;DHT22;2497;47.410;9.740;2023-07-31T13:32:00;25.00;99.90
4964;DHT22;2497;47.410;9.740;2023-07-31T13:34:29;24.90;99.90
4964;DHT22;2497;47.410;9.740;2023-07-31T13:36:58;24.90;99.90
4964;DHT22;2497;47.410;9.740;2023-07-31T13:39:30;24.80;99.90
4964;DHT22;2497;47.410;9.740;2023-07-31T13:41:58;24.50;99.90
4964;DHT22;2497;47.410;9.740;2023-07-31T13:44:44;24.40;99.90
4964;DHT22;2497;47.410;9.740;2023-07-31T13:47:15;24.30;99.90
4964;DHT22;2497;47.410;9.740;2023-07-31T13:49:43;24.10;99.90
4964;DHT22;2497;47.410;9.740;2023-07-31T13:52:11;24.10;99.90
4964;DHT22;2497;47.410;9.740;2023-07-31T13:54:41;24.00;99.90
4964;DHT22;2497;47.410;9.740;2023-07-31T13:57:08;23.90;99.90
4964;DHT22;2497;47.410;9.740;2023-07-31T13:59:36;23.70;99.90
4964;DHT22;2497;47.410;9.740;2023-07-31T14:02:03;23.70;99.90
4964;DHT22;2497;47.410;9.740;2023-07-31T14:04:32;23.50;99.90
4964;DHT22;2497;47.410;9.740;2023-07-31T14:06:59;23.50;99.90
4964;DHT22;2497;47.410;9.740;2023-07-31T14:09:27;23.30;99.90
4964;DHT22;2497;47.410;9.740;2023-07-31T14:11:54;23.30;99.90
4964;DHT22;2497;47.410;9.740;2023-07-31T14:14:24;23.20;99.90
4964;DHT22;2497;47.410;9.740;2023-07-31T14:16:52;23.10;99.90
4964;DHT22;2497;47.410;9.740;2023-07-31T14:19:20;23.30;99.90
4964;DHT22;2497;47.410;9.740;2023-07-31T14:21:50;23.30;99.90
4964;DHT22;2497;47.410;9.740;2023-07-31T14:24:22;23.30;99.90
4964;DHT22;2497;47.410;9.740;2023-07-31T14:26:50;23.30;99.90
4964;DHT22;2497;47.410;9.740;2023-07-31T14:29:18;23.30;99.90
4964;DHT22;2497;47.410;9.740;2023-07-31T14:31:55;23.20;99.90
4964;DHT22;2497;47.410;9.740;2023-07-31T14:34:23;23.20;99.90
4964;DHT22;2497;47.410;9.740;2023-07-31T14:36:59;23.30;99.90
4964;DHT22;2497;47.410;9.740;2023-07-31T14:39:27;23.30;99.90
4964;DHT22;2497;47.410;9.740;2023-07-31T14:41:57;23.30;99.90
4964;DHT22;2497;47.410;9.740;2023-07-31T14:44:26;23.30;99.90
4964;DHT22;2497;47.410;9.740;2023-07-31T14:46:56;23.40;99.90
4964;DHT22;2497;47.410;9.740;2023-07-31T14:49:24;23.30;99.90
4964;DHT22;2497;47.410;9.740;2023-07-31T14:51:54;23.30;99.90
4964;DHT22;2497;47.410;9.740;2023-07-31T14:57:09;23.50;99.90
4964;DHT22;2497;47.410;9.740;2023-07-31T15:00:15;23.70;99.90
4964;DHT22;2497;47.410;9.740;2023-07-31T15:02:56;23.80;99.90
4964;DHT22;2497;47.410;9.740;2023-07-31T15:05:23;23.80;99.90
4964;DHT22;2497;47.410;9.740;2023-07-31T15:07:50;23.90;99.90
4964;DHT22;2497;47.410;9.740;2023-07-31T15:10:17;24.00;99.90
4964;DHT22;2497;47.410;9.740;2023-07-31T15:12:46;23.90;99.90
4964;DHT22;2497;47.410;9.740;2023-07-31T15:15:14;23.90;99.90
4964;DHT22;2497;47.410;9.740;2023-07-31T15:17:42;23.90;99.90
4964;DHT22;2497;47.410;9.740;2023-07-31T15:20:10;23.90;99.90
4964;DHT22;2497;47.410;9.740;2023-07-31T15:22:38;23.90;99.90
4964;DHT22;2497;47.410;9.740;2023-07-31T15:25:06;24.00;99.90
4964;DHT22;2497;47.410;9.740;2023-07-31T15:27:34;24.00;99.90
4964;DHT22;2497;47.410;9.740;2023-07-31T15:30:03;24.00;99.90
4964;DHT22;2497;47.410;9.740;2023-07-31T15:32:30;24.00;99.90
4964;DHT22;2497;47.410;9.740;2023-07-31T15:34:58;23.80;99.90
4964;DHT22;2497;47.410;9.740;2023-07-31T15:37:25;23.80;99.90
4964;DHT22;2497;47.410;9.740;2023-07-31T15:39:52;23.70;99.90
4964;DHT22;2497;47.410;9.740;2023-07-31T15:42:19;23.60;99.90
4964;DHT22;2497;47.410;9.740;2023-07-31T15:44:46;23.50;99.90
4964;DHT22;2497;47.410;9.740;2023-07-31T15:47:14;23.50;99.90
4964;DHT22;2497;47.410;9.740;2023-07-31T15:49:42;23.40;99.90
4964;DHT22;2497;47.410;9.740;2023-07-31T15:52:09;23.40;99.90
4964;DHT22;2497;47.410;9.740;2023-07-31T15:54:36;23.50;99.90
4964;DHT22;2497;47.410;9.740;2023-07-31T15:57:03;23.40;99.90
4964;DHT22;2497;47.410;9.740;2023-07-31T15:59:30;23.40;99.90
4964;DHT22;2497;47.410;9.740;2023-07-31T16:01:58;23.40;99.90
4964;DHT22;2497;47.410;9.740;2023-07-31T16:04:26;23.30;99.90
4964;DHT22;2497;47.410;9.740;2023-07-31T16:06:53;23.30;99.90
4964;DHT22;2497;47.410;9.740;2023-07-31T16:09:21;23.30;99.90
4964;DHT22;2497;47.410;9.740;2023-07-31T16:11:48;23.30;99.90
4964;DHT22;2497;47.410;9.740;2023-07-31T16:14:15;23.20;99.90
4964;DHT22;2497;47.410;9.740;2023-07-31T16:16:42;23.20;99.90
4964;DHT22;2497;47.410;9.740;2023-07-31T16:19:09;23.10;99.90
4964;DHT22;2497;47.410;9.740;2023-07-31T16:21:38;23.10;99.90
4964;DHT22;2497;47.410;9.740;2023-07-31T16:24:05;23.10;99.90
4964;DHT22;2497;47.410;9.740;2023-07-31T16:26:32;23.10;99.90
4964;DHT22;2497;47.410;9.740;2023-07-31T16:29:01;23.30;99.90
4964;DHT22;2497;47.410;9.740;2023-07-31T16:31:28;23.30;99.90
4964;DHT22;2497;47.410;9.740;2023-07-31T16:33:55;23.40;99.90
4964;DHT22;2497;47.410;9.740;2023-07-31T16:36:24;23.40;99.90
4964;DHT22;2497;47.410;9.740;2023-07-31T16:38:52;23.30;99.90
4964;DHT22;2497;47.410;9.740;2023-07-31T16:41:20;23.30;99.90
4964;DHT22;2497;47.410;9.740;2023-07-31T16:43:49;23.30;99.90
4964;DHT22;2497;47.410;9.740;2023-07-31T16:46:16;23.30;99.90
4964;DHT22;2497;47.410;9.740;2023-07-31T16:48:43;23.30;99.90
4964;DHT22;2497;47.410;9.740;2023-07-31T16:51:10;23.30;99.90
4964;DHT22;2497;47.410;9.740;2023-07-31T16:53:39;23.30;99.90
4964;DHT22;2497;47.410;9.740;2023-07-31T16:56:08;23.40;99.90
4964;DHT22;2497;47.410;9.740;2023-07-31T16:58:35;23.40;99.90
4964;DHT22;2497;47.410;9.740;2023-07-31T17:01:03;23.40;99.90
4964;DHT22;2497;47.410;9.740;2023-07-31T17:03:30;23.30;99.90
4964;DHT22;2497;47.410;9.740;2023-07-31T17:05:57;23.20;99.90